createdAt,value
2022-10-16T00:01:51.723Z,13.62
2022-10-16T00:04:53.470Z,13.63
2022-10-16T00:07:55.084Z,13.65
2022-10-16T00:11:01.596Z,13.63
2022-10-16T00:14:05.702Z,13.72
2022-10-16T00:17:07.323Z,13.71
2022-10-16T00:20:09.052Z,13.64
2022-10-16T00:23:11.480Z,13.64
2022-10-16T00:26:15.551Z,13.65
2022-10-16T00:29:17.298Z,13.70
2022-10-16T00:32:20.515Z,13.72
2022-10-16T00:35:22.032Z,13.67
2022-10-16T00:38:23.635Z,13.68
2022-10-16T00:41:26.142Z,13.69
2022-10-16T00:44:56.729Z,13.68
2022-10-16T00:47:58.315Z,13.63
2022-10-16T00:51:00.354Z,13.58
2022-10-16T00:54:04.804Z,13.60
2022-10-16T00:57:08.154Z,13.60
2022-10-16T01:00:12.246Z,13.57
2022-10-16T01:03:35.716Z,13.56
2022-10-16T01:06:45.823Z,13.57
2022-10-16T01:09:53.634Z,13.58
2022-10-16T01:12:55.140Z,13.57
2022-10-16T01:16:13.567Z,13.59
2022-10-16T01:19:27.208Z,13.56
2022-10-16T01:22:40.028Z,13.50
2022-10-16T01:26:14.525Z,13.51
2022-10-16T01:29:21.620Z,13.47
2022-10-16T01:32:32.264Z,13.48
2022-10-16T01:35:44.453Z,13.47
2022-10-16T01:38:50.762Z,13.46
2022-10-16T01:42:13.900Z,13.44
2022-10-16T01:45:19.193Z,13.37
2022-10-16T01:48:24.432Z,13.35
2022-10-16T01:51:27.418Z,13.36
2022-10-16T01:54:31.961Z,13.39
2022-10-16T01:57:37.929Z,13.41
2022-10-16T02:00:42.019Z,13.41
2022-10-16T02:03:45.756Z,13.40
2022-10-16T02:06:47.404Z,13.41
2022-10-16T02:09:49.193Z,13.41
2022-10-16T02:12:58.488Z,13.42
2022-10-16T02:16:00.033Z,13.41
2022-10-16T02:19:02.560Z,13.38
2022-10-16T02:22:07.842Z,13.35
2022-10-16T02:25:11.876Z,13.35
2022-10-16T02:28:18.899Z,13.32
2022-10-16T02:31:28.705Z,13.23
2022-10-16T02:34:33.700Z,13.18
2022-10-16T02:37:36.137Z,13.10
2022-10-16T02:40:38.143Z,13.14
2022-10-16T02:43:39.661Z,13.14
2022-10-16T02:46:41.271Z,13.17
2022-10-16T02:49:42.887Z,13.18
2022-10-16T02:52:44.391Z,13.18
2022-10-16T02:55:46.003Z,13.14
2022-10-16T02:58:47.609Z,13.16
2022-10-16T03:01:49.431Z,13.22
2022-10-16T03:04:51.025Z,13.19
2022-10-16T03:07:53.632Z,13.26
2022-10-16T03:10:55.239Z,13.30
2022-10-16T03:13:56.755Z,13.34
2022-10-16T03:16:58.391Z,13.35
2022-10-16T03:20:00.017Z,13.35
2022-10-16T03:23:03.512Z,13.35
2022-10-16T03:26:05.137Z,13.35
2022-10-16T03:29:07.307Z,13.37
2022-10-16T03:32:08.937Z,13.37
2022-10-16T03:35:10.528Z,13.36
2022-10-16T03:38:12.153Z,13.36
2022-10-16T03:41:13.691Z,13.37
2022-10-16T03:44:15.871Z,13.38
2022-10-16T03:47:21.645Z,13.40
2022-10-16T03:50:23.309Z,13.39
2022-10-16T03:53:25.541Z,13.44
2022-10-16T03:56:27.362Z,13.44
2022-10-16T03:59:28.841Z,13.44
2022-10-16T04:02:30.377Z,13.45
2022-10-16T04:05:31.963Z,13.43
2022-10-16T04:08:35.812Z,13.45
2022-10-16T04:11:37.401Z,13.45
2022-10-16T04:14:39.009Z,13.46
2022-10-16T04:17:40.615Z,13.47
2022-10-16T04:20:42.131Z,13.48
2022-10-16T04:23:43.948Z,13.45
2022-10-16T04:26:45.480Z,13.43
2022-10-16T04:29:47.067Z,13.48
2022-10-16T04:32:52.712Z,13.48
2022-10-16T04:36:01.694Z,13.50
2022-10-16T04:39:03.436Z,13.53
2022-10-16T04:42:05.129Z,13.52
2022-10-16T04:45:07.536Z,13.54
2022-10-16T04:48:09.044Z,13.53
2022-10-16T04:51:10.889Z,13.53
2022-10-16T04:54:12.505Z,13.53
2022-10-16T04:57:14.318Z,13.51
2022-10-16T05:00:16.100Z,13.48
2022-10-16T05:03:17.816Z,13.46
2022-10-16T05:06:19.436Z,13.50
2022-10-16T05:09:21.441Z,13.52
2022-10-16T05:12:23.047Z,13.54
2022-10-16T05:15:25.989Z,13.46
2022-10-16T05:18:27.517Z,13.59
2022-10-16T05:21:29.085Z,13.59
2022-10-16T05:24:30.623Z,13.55
2022-10-16T05:27:32.212Z,13.55
2022-10-16T05:30:33.827Z,13.53
2022-10-16T05:33:35.566Z,13.54
2022-10-16T05:36:37.180Z,13.50
2022-10-16T05:39:39.774Z,13.48
2022-10-16T05:42:41.773Z,13.44
2022-10-16T05:45:43.584Z,13.48
2022-10-16T05:48:45.508Z,13.49
2022-10-16T05:51:47.215Z,13.46
2022-10-16T05:54:48.851Z,13.51
2022-10-16T05:57:50.465Z,13.55
2022-10-16T06:00:56.651Z,13.56
2022-10-16T06:03:58.797Z,13.59
2022-10-16T06:07:03.187Z,13.62
2022-10-16T06:10:05.791Z,13.65
2022-10-16T06:13:07.332Z,13.70
2022-10-16T06:16:10.245Z,13.74
2022-10-16T06:19:11.815Z,13.83
2022-10-16T06:22:13.607Z,13.86
2022-10-16T06:25:15.113Z,13.89
2022-10-16T06:28:17.263Z,13.87
2022-10-16T06:31:19.027Z,13.89
2022-10-16T06:34:20.522Z,13.93
2022-10-16T06:37:23.055Z,13.96
2022-10-16T06:40:24.801Z,13.98
2022-10-16T06:43:26.851Z,14.03
2022-10-16T06:46:28.767Z,14.13
2022-10-16T06:49:30.290Z,14.21
2022-10-16T06:52:31.871Z,14.25
2022-10-16T06:55:33.372Z,14.27
2022-10-16T06:58:35.020Z,14.31
2022-10-16T07:01:36.589Z,14.32
2022-10-16T07:04:38.146Z,14.36
2022-10-16T07:07:40.133Z,14.39
2022-10-16T07:10:41.630Z,14.36
2022-10-16T07:13:44.452Z,14.46
2022-10-16T07:16:46.064Z,14.55
2022-10-16T07:19:47.577Z,14.66
2022-10-16T07:22:49.116Z,14.75
2022-10-16T07:25:55.500Z,14.75
2022-10-16T07:28:58.464Z,14.79
2022-10-16T07:32:00.016Z,14.87
2022-10-16T07:35:01.553Z,14.86
2022-10-16T07:38:03.084Z,14.95
2022-10-16T07:41:07.384Z,14.97
2022-10-16T07:44:09.000Z,15.12
2022-10-16T07:47:10.515Z,15.31
2022-10-16T07:50:12.021Z,15.50
2022-10-16T07:53:13.904Z,15.55
2022-10-16T07:56:16.383Z,15.63
2022-10-16T07:59:17.972Z,15.82
2022-10-16T08:02:19.580Z,15.98
2022-10-16T08:05:21.085Z,16.18
2022-10-16T08:08:22.671Z,16.32
2022-10-16T08:11:24.514Z,16.43
2022-10-16T08:14:26.021Z,16.55
2022-10-16T08:17:28.094Z,16.62
2022-10-16T08:20:31.621Z,16.71
2022-10-16T08:23:33.468Z,16.72
2022-10-16T08:26:35.061Z,16.82
2022-10-16T08:29:36.591Z,16.99
2022-10-16T08:32:39.280Z,17.09
2022-10-16T08:35:41.085Z,17.15
2022-10-16T08:38:42.640Z,17.13
2022-10-16T08:41:57.843Z,17.25
2022-10-16T08:45:11.260Z,17.37
2022-10-16T08:48:18.937Z,17.46
2022-10-16T08:51:25.193Z,17.49
2022-10-16T08:54:41.512Z,17.50
2022-10-16T08:57:43.021Z,17.48
2022-10-16T09:00:48.269Z,17.42
2022-10-16T09:04:23.457Z,17.31
2022-10-16T09:07:39.429Z,17.35
2022-10-16T09:10:57.559Z,17.57
2022-10-16T09:14:19.888Z,17.92
2022-10-16T09:17:43.402Z,18.14
2022-10-16T09:20:54.081Z,18.39
2022-10-16T09:24:00.339Z,18.51
2022-10-16T09:27:01.803Z,18.67
2022-10-16T09:30:12.520Z,18.74
2022-10-16T09:33:15.541Z,18.77
2022-10-16T09:36:17.939Z,18.74
2022-10-16T09:39:19.581Z,19.00
2022-10-16T09:42:26.494Z,19.48
2022-10-16T09:45:28.198Z,19.65
2022-10-16T09:48:39.123Z,19.68
2022-10-16T09:51:40.608Z,19.62
2022-10-16T09:54:55.519Z,19.86
2022-10-16T09:57:57.425Z,20.09
2022-10-16T10:00:59.044Z,20.17
2022-10-16T10:04:02.202Z,20.34
2022-10-16T10:07:03.889Z,20.65
2022-10-16T10:10:07.384Z,21.02
2022-10-16T10:13:23.832Z,21.27
2022-10-16T10:16:25.735Z,21.51
2022-10-16T10:19:32.007Z,21.73
2022-10-16T10:22:43.131Z,21.97
2022-10-16T10:25:50.640Z,22.14
2022-10-16T10:29:20.197Z,22.17
2022-10-16T10:32:40.135Z,22.16
2022-10-16T10:35:44.422Z,22.16
2022-10-16T10:38:53.713Z,22.21
2022-10-16T10:42:25.313Z,22.31
2022-10-16T10:45:37.435Z,22.48
2022-10-16T10:48:48.511Z,22.49
2022-10-16T10:51:52.696Z,22.46
2022-10-16T10:55:13.346Z,22.49
2022-10-16T10:58:37.875Z,22.63
2022-10-16T11:01:55.134Z,22.78
2022-10-16T11:05:16.513Z,23.06
2022-10-16T11:08:36.060Z,23.23
2022-10-16T11:11:53.941Z,23.40
2022-10-16T11:15:13.658Z,23.67
2022-10-16T11:18:23.666Z,23.74
2022-10-16T11:21:31.039Z,23.47
2022-10-16T11:24:43.600Z,23.37
2022-10-16T11:27:57.335Z,23.45
2022-10-16T11:31:25.703Z,23.59
2022-10-16T11:34:34.235Z,23.73
2022-10-16T11:37:44.464Z,23.85
2022-10-16T11:40:51.388Z,23.83
2022-10-16T11:44:31.788Z,23.77
2022-10-16T11:47:59.632Z,23.80
2022-10-16T11:51:09.060Z,24.04
2022-10-16T11:54:33.328Z,23.94
2022-10-16T11:57:41.629Z,23.89
2022-10-16T12:00:54.449Z,23.92
2022-10-16T12:04:28.486Z,23.73
2022-10-16T12:07:38.258Z,23.73
2022-10-16T12:10:42.523Z,23.78
2022-10-16T12:13:44.490Z,23.88
2022-10-16T12:16:53.545Z,23.92
2022-10-16T12:20:00.611Z,24.02
2022-10-16T12:23:07.667Z,24.13
2022-10-16T12:26:09.264Z,24.16
2022-10-16T12:29:14.293Z,24.16
2022-10-16T12:32:53.225Z,24.25
2022-10-16T12:35:56.530Z,24.18
2022-10-16T12:38:59.436Z,24.09
2022-10-16T12:42:03.348Z,24.08
2022-10-16T12:45:23.911Z,24.09
2022-10-16T12:48:32.471Z,24.07
2022-10-16T12:51:44.420Z,24.02
2022-10-16T12:54:46.011Z,23.92
2022-10-16T12:58:17.787Z,23.61
2022-10-16T13:01:44.364Z,23.69
2022-10-16T13:05:10.144Z,23.71
2022-10-16T13:08:30.537Z,23.72
2022-10-16T13:11:54.099Z,23.69
2022-10-16T13:15:29.337Z,23.62
2022-10-16T13:18:46.105Z,23.65
2022-10-16T13:22:17.907Z,23.75
2022-10-16T13:25:31.244Z,23.73
2022-10-16T13:28:40.870Z,23.74
2022-10-16T13:31:49.795Z,23.72
2022-10-16T13:35:02.096Z,23.66
2022-10-16T13:38:25.324Z,23.60
2022-10-16T13:41:26.830Z,23.67
2022-10-16T13:44:37.940Z,23.78
2022-10-16T13:47:39.533Z,23.75
2022-10-16T13:50:41.129Z,23.81
2022-10-16T13:53:43.838Z,23.59
2022-10-16T13:56:45.481Z,23.66
2022-10-16T13:59:47.069Z,23.80
2022-10-16T14:02:58.531Z,23.62
2022-10-16T14:06:03.631Z,23.66
2022-10-16T14:09:25.522Z,23.87
2022-10-16T14:12:28.357Z,24.01
2022-10-16T14:15:32.381Z,23.91
2022-10-16T14:18:35.855Z,24.04
2022-10-16T14:21:38.489Z,24.01
2022-10-16T14:24:40.188Z,24.21
2022-10-16T14:27:41.704Z,24.54
2022-10-16T14:30:55.341Z,24.77
2022-10-16T14:33:57.155Z,26.36
2022-10-16T14:37:03.311Z,27.62
2022-10-16T14:40:05.462Z,28.00
2022-10-16T14:43:07.101Z,27.21
2022-10-16T14:49:24.607Z,25.32
2022-10-16T14:52:26.205Z,24.93
2022-10-16T14:55:27.849Z,24.64
2022-10-16T14:58:29.452Z,24.55
2022-10-16T15:01:30.944Z,24.58
2022-10-16T15:04:32.473Z,24.40
2022-10-16T15:07:34.001Z,24.14
2022-10-16T15:10:43.707Z,24.05
2022-10-16T15:13:46.143Z,24.20
2022-10-16T15:16:47.633Z,24.25
2022-10-16T15:19:49.175Z,24.27
2022-10-16T15:22:50.973Z,24.19
2022-10-16T15:25:54.816Z,24.11
2022-10-16T15:28:58.904Z,23.83
2022-10-16T15:32:00.434Z,23.81
2022-10-16T15:35:09.645Z,23.88
2022-10-16T15:38:15.927Z,24.16
2022-10-16T15:41:17.733Z,24.31
2022-10-16T15:44:19.933Z,23.76
2022-10-16T15:47:21.557Z,23.39
2022-10-16T15:50:23.190Z,23.04
2022-10-16T15:53:24.765Z,22.69
2022-10-16T15:56:29.481Z,22.43
2022-10-16T15:59:31.305Z,22.15
2022-10-16T16:02:32.744Z,21.71
2022-10-16T16:05:36.244Z,21.47
2022-10-16T16:08:38.059Z,21.26
2022-10-16T16:11:40.310Z,21.09
2022-10-16T16:14:41.916Z,20.89
2022-10-16T16:17:44.999Z,20.64
2022-10-16T16:20:46.528Z,20.42
2022-10-16T16:23:47.982Z,20.21
2022-10-16T16:26:49.598Z,19.98
2022-10-16T16:29:51.481Z,19.73
2022-10-16T16:32:53.096Z,19.51
2022-10-16T16:36:03.024Z,19.22
2022-10-16T16:39:04.915Z,19.02
2022-10-16T16:42:08.349Z,18.77
2022-10-16T16:45:10.037Z,18.64
2022-10-16T16:48:11.550Z,18.50
2022-10-16T16:51:17.124Z,18.41
2022-10-16T16:54:18.820Z,18.26
2022-10-16T16:57:21.003Z,18.17
2022-10-16T17:00:22.469Z,18.00
2022-10-16T17:03:24.012Z,17.89
2022-10-16T17:06:28.205Z,17.75
2022-10-16T17:09:29.760Z,17.68
2022-10-16T17:12:31.313Z,17.59
2022-10-16T17:15:32.857Z,17.52
2022-10-16T17:18:35.115Z,17.29
2022-10-16T17:21:37.199Z,17.28
2022-10-16T17:24:39.188Z,17.22
2022-10-16T17:27:40.718Z,17.16
2022-10-16T17:30:43.473Z,17.08
2022-10-16T17:33:45.331Z,17.01
2022-10-16T17:36:47.730Z,16.97
2022-10-16T17:39:51.009Z,16.86
2022-10-16T17:42:52.463Z,16.78
2022-10-16T17:45:53.976Z,16.68
2022-10-16T17:48:55.782Z,16.60
2022-10-16T17:51:57.403Z,16.56
2022-10-16T17:54:59.223Z,16.48
2022-10-16T17:58:00.691Z,16.44
2022-10-16T18:01:05.930Z,16.42
2022-10-16T18:04:16.097Z,16.42
2022-10-16T18:07:18.199Z,16.37
2022-10-16T18:10:21.154Z,16.33
2022-10-16T18:13:23.233Z,16.25
2022-10-16T18:16:27.324Z,16.20
2022-10-16T18:19:28.957Z,16.10
2022-10-16T18:22:31.344Z,16.08
2022-10-16T18:25:32.856Z,16.00
2022-10-16T18:28:34.470Z,15.93
2022-10-16T18:31:39.014Z,15.87
2022-10-16T18:34:52.117Z,15.82
2022-10-16T18:37:55.812Z,15.86
2022-10-16T18:40:58.559Z,15.74
2022-10-16T18:44:00.138Z,15.58
2022-10-16T18:47:02.444Z,15.71
2022-10-16T18:50:07.109Z,15.83
2022-10-16T18:53:11.006Z,15.83
2022-10-16T18:56:16.505Z,15.85
2022-10-16T18:59:18.307Z,15.85
2022-10-16T19:02:19.858Z,15.81
2022-10-16T19:05:21.509Z,15.74
2022-10-16T19:08:23.046Z,15.65
2022-10-16T19:11:28.098Z,15.52
2022-10-16T19:14:30.160Z,15.49
2022-10-16T19:17:31.707Z,15.38
2022-10-16T19:20:33.237Z,15.32
2022-10-16T19:23:34.976Z,15.31
2022-10-16T19:26:39.528Z,15.28
2022-10-16T19:29:43.580Z,15.26
2022-10-16T19:32:49.607Z,15.23
2022-10-16T19:35:51.113Z,15.26
2022-10-16T19:38:54.683Z,15.33
2022-10-16T19:41:56.217Z,15.32
2022-10-16T19:44:57.738Z,15.25
2022-10-16T19:47:59.251Z,15.16
2022-10-16T19:51:01.037Z,15.10
2022-10-16T19:54:05.367Z,15.10
2022-10-16T19:57:07.001Z,15.06
2022-10-16T20:00:09.811Z,14.97
2022-10-16T20:03:11.533Z,15.07
2022-10-16T20:06:14.312Z,15.13
2022-10-16T20:09:16.024Z,15.13
2022-10-16T20:12:17.666Z,15.11
2022-10-16T20:15:19.284Z,15.07
2022-10-16T20:18:21.353Z,15.03
2022-10-16T20:21:26.171Z,14.97
2022-10-16T20:24:27.779Z,14.92
2022-10-16T20:27:31.339Z,14.81
2022-10-16T20:30:41.725Z,14.72
2022-10-16T20:33:43.464Z,14.69
2022-10-16T20:36:46.492Z,14.70
2022-10-16T20:39:47.965Z,14.70
2022-10-16T20:42:49.563Z,14.67
2022-10-16T20:46:00.220Z,14.62
2022-10-16T20:49:10.813Z,14.59
2022-10-16T20:52:12.936Z,14.58
2022-10-16T20:55:16.261Z,14.61
2022-10-16T20:58:17.741Z,14.67
2022-10-16T21:01:22.998Z,14.65
2022-10-16T21:04:24.500Z,14.66
2022-10-16T21:07:27.853Z,14.62
2022-10-16T21:10:29.871Z,14.59
2022-10-16T21:13:31.311Z,14.56
2022-10-16T21:16:34.255Z,14.49
2022-10-16T21:19:35.728Z,14.45
2022-10-16T21:22:37.233Z,14.40
2022-10-16T21:25:38.680Z,14.37
2022-10-16T21:28:40.165Z,14.31
2022-10-16T21:31:42.352Z,14.27
2022-10-16T21:34:44.046Z,14.25
2022-10-16T21:37:49.263Z,14.18
2022-10-16T21:40:50.746Z,14.09
2022-10-16T21:43:53.088Z,14.02
2022-10-16T21:46:54.545Z,13.98
2022-10-16T21:49:56.098Z,13.92
2022-10-16T21:52:57.601Z,13.91
2022-10-16T21:55:59.284Z,13.89
2022-10-16T21:59:01.201Z,13.88
2022-10-16T22:02:03.229Z,13.90
2022-10-16T22:05:05.138Z,13.90
2022-10-16T22:08:06.778Z,13.86
2022-10-16T22:11:23.450Z,13.82
2022-10-16T22:14:25.065Z,13.79
2022-10-16T22:17:26.757Z,13.73
2022-10-16T22:20:28.391Z,13.70
2022-10-16T22:23:29.848Z,13.69
2022-10-16T22:26:31.364Z,13.66
2022-10-16T22:29:32.837Z,13.67
2022-10-16T22:32:34.452Z,13.67
2022-10-16T22:35:37.601Z,13.71
2022-10-16T22:38:39.900Z,13.66
2022-10-16T22:41:41.346Z,13.67
2022-10-16T22:44:42.836Z,13.64
2022-10-16T22:47:44.281Z,13.60
2022-10-16T22:50:48.654Z,13.58
2022-10-16T22:53:50.676Z,13.53
2022-10-16T22:56:52.158Z,13.39
2022-10-16T22:59:53.594Z,13.42
2022-10-16T23:02:55.610Z,13.41
2022-10-16T23:05:57.109Z,13.40
2022-10-16T23:09:00.427Z,13.37
2022-10-16T23:12:01.994Z,13.35
2022-10-16T23:15:04.097Z,13.34
2022-10-16T23:18:05.649Z,13.25
2022-10-16T23:21:09.127Z,13.31
2022-10-16T23:24:10.640Z,13.27
2022-10-16T23:27:12.221Z,13.26
2022-10-16T23:30:13.768Z,13.23
2022-10-16T23:33:15.232Z,13.22
2022-10-16T23:36:21.169Z,13.22
2022-10-16T23:39:22.705Z,13.19
2022-10-16T23:42:24.238Z,13.18
2022-10-16T23:45:25.821Z,13.09
2022-10-16T23:48:27.612Z,13.06
2022-10-16T23:51:29.065Z,13.06
2022-10-16T23:54:30.645Z,13.09
2022-10-16T23:57:32.200Z,13.03
